New Carlisle, IN

5:38 PM EDT on October 31, 2014 (GMT -0400)
Bendix Woods County Park | Change Station
CLOSE
Current Station
Personal Weather Station
Location: New Carlisle, IN
Elevation: 835 ft
Nearby Weather Stations
Active Advisory: Wind Advisory Active Notice: Public Information Statement

Elev 835 ft 41.66 °N, 86.51 °W | Updated 2 seconds ago

Snow
Snow
35.3 °F
Feels Like 27 °F
N
12.0
Wind Variable Wind from North
Gusts 21.0 mph

Today
High -- | Low -- °F
--% Chance of Precip.
Yesterday
High -- | Low -- °F
Precip. -- in
8:16 AM 6:41 PM
First Quarter, 59% visible
Pressure 30.10 in
Visibility 8.0 miles
Clouds Overcast 2000 ft
Windchill 27 °F
Dew Point 34 °F
Humidity 95%
Rainfall 0.20 in
Snow Depth Not available.
UV 0 out of 12
Pollen .10 out of 12
Air Quality Not available.
Flu Activity Not available.
SPECI KSBN 312116Z 36018G24KT 8SM -SN OVC020 02/01 A3010 RMK AO2 PK WND 35029/2103 SNB07 P0001 I1001 T00170011 $

More Conditions Fewer Conditions

Pressure 30.10 in
Visibility 8.0 miles
Clouds Overcast 2000 ft
Windchill 27 °F
Dew Point 34 °F
Humidity 95%
Rainfall 0.20 in
Snow Depth Not available.
UV 0 out of 12
Pollen .10 out of 12
Air Quality Not available.
Flu Activity Not available.
SPECI KSBN 312116Z 36018G24KT 8SM -SN OVC020 02/01 A3010 RMK AO2 PK WND 35029/2103 SNB07 P0001 I1001 T00170011 $

More Conditions Fewer Conditions

10-Day Weather Forecast

Almanac

Astronomy

Oct. 31, 2014 Rise Set
Actual Time
Civil Twilight
Nautical Twilight
Astronomical Twilight
Moon
Length of Visible Light
Length of Day
Tomorrow will be .
, % of the Moon is Illuminated

Today's Extremes

State Highs State Lows

Community

WunderPhotos

Upload Photos

1,766,738 photos uploaded!

WunderBlogs® & News

Nearby

Air Quality

  Air Quality AQ Index Pollutant
Not available.

Snow Depth

Station Depth Elevation

Earthquake Activity

City Distance Mag. Time & Date
Minimum magnitude displayed is 2.5.

Coastal Water Temperatures

Place Temperature

Nearby Weather Stations